Time;durP1;ratioP1;P1;durP2;ratioP2;P2;SDS_P1;SDS_P2;PMS_P1;PMS_P2;Temp;Humidity;BMP_temperature;BMP_pressure;BME280_temperature;BME280_humidity;BME280_pressure;Samples;Min_cycle;Max_cycle;Signal;HPM_P1;HPM_P2
2021/03/04 00:02:22;;;;;;;0.50;0.50;;;7.90;99.90;;;;;;5064584;28;20754;-70
2021/03/04 00:04:48;;;;;;;0.77;0.77;;;7.90;99.90;;;;;;5058087;28;20255;-70
2021/03/04 00:07:14;;;;;;;0.85;0.85;;;7.90;99.90;;;;;;5058701;28;20184;-70
2021/03/04 00:09:40;;;;;;;0.43;0.43;;;7.90;99.90;;;;;;5053003;28;20198;-70
2021/03/04 00:12:06;;;;;;;0.83;0.83;;;7.90;99.90;;;;;;5065000;28;20173;-71
2021/03/04 00:14:31;;;;;;;0.40;0.40;;;7.90;99.90;;;;;;5072295;28;20199;-70
2021/03/04 00:16:57;;;;;;;0.50;0.50;;;7.90;99.90;;;;;;5062185;28;20272;-70
2021/03/04 00:19:23;;;;;;;1.33;1.30;;;7.90;99.90;;;;;;5051766;28;20184;-69
2021/03/04 00:21:49;;;;;;;0.30;0.30;;;7.90;99.90;;;;;;5061224;28;20177;-69
2021/03/04 00:24:15;;;;;;;0.55;0.55;;;7.90;99.90;;;;;;5069372;28;21730;-70
2021/03/04 00:26:41;;;;;;;1.03;1.03;;;7.90;99.90;;;;;;5053342;28;20199;-70
2021/03/04 00:29:06;;;;;;;0.30;0.20;;;7.90;99.90;;;;;;5055339;28;20560;-70
2021/03/04 00:31:32;;;;;;;0.70;0.70;;;7.90;99.90;;;;;;5062562;28;20185;-70
2021/03/04 00:33:58;;;;;;;0.30;0.30;;;7.90;99.90;;;;;;5076397;28;20563;-70
2021/03/04 00:36:23;;;;;;;3.30;0.90;;;7.90;99.90;;;;;;5068916;28;20191;-70
2021/03/04 00:38:49;;;;;;;0.63;0.63;;;7.90;99.90;;;;;;5056665;28;20176;-70
2021/03/04 00:41:14;;;;;;;1.80;1.70;;;7.80;99.90;;;;;;5058757;28;20530;-70
2021/03/04 00:43:40;;;;;;;3.07;2.87;;;7.70;99.90;;;;;;5056716;28;20171;-70
2021/03/04 00:46:06;;;;;;;0.40;0.40;;;7.70;99.90;;;;;;5059525;28;20189;-70
2021/03/04 00:48:31;;;;;;;0.40;0.40;;;7.70;99.90;;;;;;5076497;28;20173;-70
2021/03/04 00:50:57;;;;;;;0.63;0.63;;;7.60;99.90;;;;;;5073651;28;20197;-70
2021/03/04 00:53:23;;;;;;;0.87;0.87;;;7.50;99.90;;;;;;5056537;28;20175;-72
2021/03/04 00:55:49;;;;;;;0.60;0.60;;;7.50;99.90;;;;;;5074444;28;20691;-71
2021/03/04 00:58:14;;;;;;;1.90;1.80;;;7.40;99.90;;;;;;5078626;28;20165;-71
2021/03/04 01:00:40;;;;;;;0.30;0.30;;;7.40;99.90;;;;;;5078310;28;20920;-72
2021/03/04 01:03:06;;;;;;;0.40;0.40;;;7.40;99.90;;;;;;5066896;28;20214;-71
2021/03/04 01:05:32;;;;;;;0.30;0.30;;;7.40;99.90;;;;;;5076062;28;20420;-70
2021/03/04 01:07:58;;;;;;;0.30;0.30;;;7.40;99.90;;;;;;5058720;28;20229;-71
2021/03/04 01:10:31;;;;;;;0.40;0.40;;;7.30;99.90;;;;;;5055667;28;20454;-70
2021/03/04 01:12:56;;;;;;;0.30;0.30;;;7.30;99.90;;;;;;5075880;28;20244;-71
2021/03/04 01:15:22;;;;;;;0.53;0.53;;;7.30;99.90;;;;;;5057727;28;20217;-71
2021/03/04 01:17:48;;;;;;;0.75;0.75;;;7.30;99.90;;;;;;5056040;28;20628;-70
2021/03/04 01:20:16;;;;;;;0.45;0.45;;;7.30;99.90;;;;;;5056100;28;20173;-71
2021/03/04 01:22:43;;;;;;;0.50;0.50;;;7.20;99.90;;;;;;5054914;28;20214;-71
2021/03/04 01:25:09;;;;;;;1.70;1.60;;;7.20;99.90;;;;;;5055501;28;20195;-71
2021/03/04 01:27:36;;;;;;;0.30;0.30;;;7.20;99.90;;;;;;5073990;28;20656;-72
2021/03/04 01:30:04;;;;;;;1.77;1.20;;;7.20;99.90;;;;;;5075351;28;20236;-71
2021/03/04 01:32:30;;;;;;;0.70;0.70;;;7.20;99.90;;;;;;5058103;28;20660;-71
2021/03/04 01:34:55;;;;;;;0.40;0.40;;;7.20;99.90;;;;;;5070640;28;20225;-72
2021/03/04 01:37:21;;;;;;;0.83;0.83;;;7.20;99.90;;;;;;5059964;28;20181;-71
2021/03/04 01:39:47;;;;;;;0.90;0.90;;;7.10;99.90;;;;;;5054987;28;20181;-71
2021/03/04 01:42:14;;;;;;;2.70;1.27;;;7.20;99.90;;;;;;5068612;28;20190;-72
2021/03/04 01:44:39;;;;;;;1.67;1.58;;;7.20;99.90;;;;;;5075103;28;20169;-71
2021/03/04 01:47:06;;;;;;;0.83;0.83;;;7.20;99.90;;;;;;5063060;28;20180;-71
2021/03/04 01:49:33;;;;;;;0.30;0.30;;;7.30;99.90;;;;;;5055352;28;20194;-71
2021/03/04 01:51:59;;;;;;;0.30;0.30;;;7.30;99.90;;;;;;5055549;28;20170;-70
2021/03/04 01:54:25;;;;;;;1.88;1.77;;;7.40;99.90;;;;;;5067928;28;20172;-71
2021/03/04 01:56:50;;;;;;;0.30;0.30;;;7.30;99.90;;;;;;5064865;28;20696;-71
2021/03/04 01:59:16;;;;;;;0.50;0.50;;;7.30;99.90;;;;;;5055379;28;20409;-70
2021/03/04 02:01:42;;;;;;;0.40;0.40;;;7.30;99.90;;;;;;5055775;28;20177;-70
2021/03/04 02:04:08;;;;;;;0.60;0.60;;;7.30;99.90;;;;;;5054861;28;20169;-71
2021/03/04 02:06:47;;;;;;;1.33;1.30;;;7.30;99.90;;;;;;5061294;28;20630;-72
2021/03/04 02:09:15;;;;;;;0.40;0.40;;;7.40;99.90;;;;;;5061261;28;20205;-72
2021/03/04 02:11:50;;;;;;;0.30;0.30;;;7.40;99.90;;;;;;5062319;28;20173;-71
2021/03/04 02:14:27;;;;;;;0.30;0.30;;;7.40;99.90;;;;;;5074592;28;20162;-71
2021/03/04 02:17:00;;;;;;;1.25;1.25;;;7.30;99.90;;;;;;5065828;28;20298;-72
2021/03/04 02:19:40;;;;;;;0.80;0.75;;;7.30;99.90;;;;;;5068457;28;20169;-71
2021/03/04 02:22:16;;;;;;;0.35;0.35;;;7.30;99.90;;;;;;5064055;28;20173;-72
2021/03/04 02:25:18;;;;;;;0.30;0.30;;;7.30;99.90;;;;;;5054471;28;20175;-72
2021/03/04 02:27:45;;;;;;;0.90;0.90;;;7.30;99.90;;;;;;5054397;28;20227;-71
2021/03/04 02:30:15;;;;;;;3.15;1.25;;;7.20;99.90;;;;;;5054454;28;20624;-71
2021/03/04 02:32:48;;;;;;;0.40;0.40;;;7.20;99.90;;;;;;5054668;28;20169;-71
2021/03/04 02:35:18;;;;;;;0.47;0.47;;;7.20;99.90;;;;;;5054497;28;20178;-71
2021/03/04 02:37:53;;;;;;;0.88;0.88;;;7.20;99.90;;;;;;5070999;28;20174;-71
2021/03/04 02:40:21;;;;;;;0.30;0.30;;;7.30;99.90;;;;;;5074594;28;20254;-71
2021/03/04 02:42:49;;;;;;;0.40;0.40;;;7.30;99.90;;;;;;5039687;28;20178;-72
2021/03/04 02:45:16;;;;;;;0.60;0.60;;;7.30;99.90;;;;;;5053939;28;20200;-72
2021/03/04 02:47:43;;;;;;;0.43;0.43;;;7.20;99.90;;;;;;5070094;28;20191;-71
2021/03/04 02:50:09;;;;;;;0.35;0.35;;;7.20;99.90;;;;;;5073781;28;20278;-71
2021/03/04 02:52:36;;;;;;;0.38;0.38;;;7.20;99.90;;;;;;5059588;28;20174;-71
2021/03/04 02:55:05;;;;;;;0.40;0.40;;;7.20;99.90;;;;;;5053643;28;20189;-72
2021/03/04 02:57:32;;;;;;;0.30;0.30;;;7.10;99.90;;;;;;5066219;28;20185;-71
2021/03/04 02:59:59;;;;;;;0.95;0.95;;;7.10;99.90;;;;;;5072294;28;20179;-71
2021/03/04 03:02:27;;;;;;;0.90;0.90;;;7.00;99.90;;;;;;5074255;28;20173;-71
2021/03/04 03:04:54;;;;;;;0.60;0.60;;;7.00;99.90;;;;;;5067336;28;20568;-71
2021/03/04 03:07:21;;;;;;;0.30;0.30;;;7.00;99.90;;;;;;5073545;28;20185;-71
2021/03/04 03:09:47;;;;;;;0.30;0.30;;;7.00;99.90;;;;;;5067331;28;20232;-71
2021/03/04 03:12:15;;;;;;;0.30;0.30;;;7.00;99.90;;;;;;5056392;28;20581;-72
2021/03/04 03:14:42;;;;;;;0.60;0.60;;;7.00;99.90;;;;;;5053419;28;20245;-72
2021/03/04 03:17:08;;;;;;;0.40;0.40;;;7.00;99.90;;;;;;5061748;28;20167;-71
2021/03/04 03:19:34;;;;;;;0.35;0.35;;;7.00;99.90;;;;;;5061234;28;20537;-71
2021/03/04 03:22:01;;;;;;;2.15;2.05;;;7.00;99.90;;;;;;5062298;28;20177;-72
2021/03/04 03:24:27;;;;;;;0.68;0.68;;;7.00;99.90;;;;;;5053137;28;20184;-72
2021/03/04 03:26:53;;;;;;;0.40;0.40;;;7.00;99.90;;;;;;5053409;28;20220;-71
2021/03/04 03:29:19;;;;;;;0.30;0.30;;;7.10;99.90;;;;;;5064105;28;20509;-71
2021/03/04 03:31:49;;;;;;;0.30;0.30;;;7.00;99.90;;;;;;5073564;28;20175;-71
2021/03/04 03:34:15;;;;;;;0.30;0.30;;;7.00;99.90;;;;;;5053974;28;20181;-72
2021/03/04 03:36:42;;;;;;;0.77;0.77;;;6.90;99.90;;;;;;5063462;28;20196;-72
2021/03/04 03:39:09;;;;;;;0.50;0.50;;;6.90;99.90;;;;;;5054661;28;20170;-71
2021/03/04 03:41:35;;;;;;;0.88;0.70;;;6.80;99.90;;;;;;5053313;28;20231;-71
2021/03/04 03:44:01;;;;;;;0.50;0.50;;;6.70;99.90;;;;;;5067945;28;20234;-70
2021/03/04 03:46:31;;;;;;;0.75;0.75;;;6.70;99.90;;;;;;5053286;28;20182;-72
2021/03/04 03:49:01;;;;;;;2.08;1.90;;;6.60;99.90;;;;;;5068761;28;20620;-72
2021/03/04 03:51:28;;;;;;;0.40;0.40;;;6.60;99.90;;;;;;5065910;28;20564;-72
2021/03/04 03:53:54;;;;;;;0.40;0.40;;;6.60;99.90;;;;;;5051594;28;20201;-71
2021/03/04 03:56:21;;;;;;;1.67;0.88;;;6.50;99.90;;;;;;5059151;28;20203;-72
2021/03/04 03:58:47;;;;;;;0.57;0.57;;;6.50;99.90;;;;;;5073339;28;20169;-72
2021/03/04 04:01:14;;;;;;;1.85;1.73;;;6.50;99.90;;;;;;5069426;28;20185;-72
2021/03/04 04:03:39;;;;;;;1.67;1.63;;;6.50;99.90;;;;;;5054502;28;20166;-72
2021/03/04 04:06:06;;;;;;;0.30;0.30;;;6.50;99.90;;;;;;5054500;28;20596;-72
2021/03/04 04:08:33;;;;;;;0.30;0.30;;;6.50;99.90;;;;;;5053236;28;20424;-72
2021/03/04 04:10:59;;;;;;;0.73;0.73;;;6.50;99.90;;;;;;5069865;28;20208;-72
2021/03/04 04:13:25;;;;;;;0.70;0.70;;;6.50;99.90;;;;;;5052973;28;20579;-71
2021/03/04 04:15:51;;;;;;;0.30;0.30;;;6.50;99.90;;;;;;5052512;28;20193;-72
2021/03/04 04:18:18;;;;;;;0.77;0.77;;;6.50;99.90;;;;;;5071702;28;20415;-71
2021/03/04 04:20:45;;;;;;;0.70;0.70;;;6.50;99.90;;;;;;5072964;28;20188;-71
2021/03/04 04:23:11;;;;;;;0.82;0.82;;;6.50;99.90;;;;;;5055414;28;20177;-71
2021/03/04 04:25:47;;;;;;;0.40;0.40;;;6.50;99.90;;;;;;5052495;28;20655;-71
2021/03/04 04:28:12;;;;;;;0.40;0.40;;;6.40;99.90;;;;;;5070665;28;20174;-71
2021/03/04 04:30:38;;;;;;;0.57;0.57;;;6.40;99.90;;;;;;5065148;28;20201;-71
2021/03/04 04:33:04;;;;;;;0.40;0.40;;;6.40;99.90;;;;;;5070128;28;20185;-72
2021/03/04 04:35:29;;;;;;;0.80;0.80;;;6.40;99.90;;;;;;5072420;28;20533;-71
2021/03/04 04:37:55;;;;;;;0.30;0.30;;;6.40;99.90;;;;;;5057118;28;20177;-71
2021/03/04 04:40:21;;;;;;;0.40;0.40;;;6.40;99.90;;;;;;5051967;28;20170;-71
2021/03/04 04:42:46;;;;;;;0.30;0.30;;;6.30;99.90;;;;;;5064942;28;20186;-71
2021/03/04 04:45:12;;;;;;;0.50;0.50;;;6.30;99.90;;;;;;5072014;28;20198;-71
2021/03/04 04:47:38;;;;;;;4.80;1.13;;;6.20;99.90;;;;;;5070439;28;20208;-72
2021/03/04 04:50:05;;;;;;;0.70;0.70;;;6.20;99.90;;;;;;5072809;28;20805;-71
2021/03/04 04:52:30;;;;;;;0.30;0.30;;;6.10;99.90;;;;;;5060264;28;20218;-71
2021/03/04 04:54:56;;;;;;;0.30;0.30;;;6.10;99.90;;;;;;5052156;28;20728;-71
2021/03/04 04:57:22;;;;;;;0.30;0.30;;;6.10;99.90;;;;;;5062807;28;20184;-71
2021/03/04 04:59:48;;;;;;;1.35;0.93;;;6.10;99.90;;;;;;5067606;28;20173;-71
2021/03/04 05:02:14;;;;;;;0.38;0.38;;;6.00;99.90;;;;;;5060867;28;20193;-72
2021/03/04 05:04:40;;;;;;;0.30;0.30;;;6.00;99.90;;;;;;5072304;28;20525;-72
2021/03/04 05:07:05;;;;;;;0.30;0.30;;;6.00;99.90;;;;;;5064605;28;20174;-72
2021/03/04 05:09:31;;;;;;;1.37;1.27;;;6.00;99.90;;;;;;5067875;28;20199;-71
2021/03/04 05:11:56;;;;;;;0.50;0.50;;;6.00;99.90;;;;;;5056646;28;20178;-69
2021/03/04 05:14:22;;;;;;;0.40;0.40;;;6.00;99.90;;;;;;5052225;28;20162;-72
2021/03/04 05:16:48;;;;;;;0.40;0.40;;;6.00;99.90;;;;;;5069064;28;20200;-71
2021/03/04 05:19:13;;;;;;;0.30;0.30;;;5.90;99.90;;;;;;5075941;28;20165;-71
2021/03/04 05:21:39;;;;;;;1.00;1.00;;;5.90;99.90;;;;;;5062297;28;20177;-71
2021/03/04 05:24:05;;;;;;;0.50;0.50;;;6.00;99.90;;;;;;5069125;28;20269;-71
2021/03/04 05:26:31;;;;;;;0.40;0.40;;;6.00;99.90;;;;;;5064213;28;20193;-71
2021/03/04 05:28:56;;;;;;;1.43;0.90;;;6.00;99.90;;;;;;5056009;28;20644;-70
2021/03/04 05:31:22;;;;;;;0.40;0.40;;;6.00;99.90;;;;;;5063209;28;20310;-72
2021/03/04 05:33:48;;;;;;;0.63;0.63;;;6.00;99.90;;;;;;5055353;28;20495;-72
2021/03/04 05:36:13;;;;;;;0.47;0.47;;;6.00;99.90;;;;;;5064036;28;20215;-70
2021/03/04 05:38:39;;;;;;;0.70;0.70;;;6.00;99.90;;;;;;5075990;28;20168;-71
2021/03/04 05:41:07;;;;;;;0.70;0.70;;;6.00;99.90;;;;;;5068614;28;20177;-71
2021/03/04 05:43:36;;;;;;;0.50;0.50;;;6.00;99.90;;;;;;5058138;28;20535;-71
2021/03/04 05:46:02;;;;;;;0.30;0.30;;;6.00;99.90;;;;;;5061527;28;20193;-71
2021/03/04 05:48:29;;;;;;;0.50;0.50;;;6.00;99.90;;;;;;5056778;28;20174;-71
2021/03/04 05:50:57;;;;;;;0.30;0.30;;;6.00;99.90;;;;;;5063763;28;20361;-71
2021/03/04 05:53:23;;;;;;;0.60;0.60;;;6.10;99.90;;;;;;5074800;28;20173;-71
2021/03/04 05:55:49;;;;;;;0.40;0.40;;;6.10;99.90;;;;;;5066600;28;20228;-70
2021/03/04 05:58:15;;;;;;;0.40;0.40;;;6.10;99.90;;;;;;5055459;28;20173;-70
2021/03/04 06:00:42;;;;;;;0.60;0.60;;;6.10;99.90;;;;;;5061143;28;20175;-71
2021/03/04 06:03:09;;;;;;;0.98;0.77;;;6.20;99.90;;;;;;5073251;28;20633;-72
2021/03/04 06:05:35;;;;;;;0.80;0.80;;;6.10;99.90;;;;;;5060251;28;20204;-70
2021/03/04 06:08:03;;;;;;;0.77;0.77;;;6.10;99.90;;;;;;5061442;28;20518;-71
2021/03/04 06:10:29;;;;;;;0.80;0.80;;;6.00;99.90;;;;;;5058185;28;20198;-71
2021/03/04 06:12:55;;;;;;;0.40;0.40;;;6.00;99.90;;;;;;5061055;28;20177;-71
2021/03/04 06:15:24;;;;;;;0.30;0.30;;;6.00;99.90;;;;;;5055760;28;20536;-71
2021/03/04 06:17:54;;;;;;;0.30;0.30;;;6.00;99.90;;;;;;5074460;28;20210;-71
2021/03/04 06:20:20;;;;;;;0.40;0.40;;;5.90;99.90;;;;;;5071350;28;20251;-70
2021/03/04 06:22:47;;;;;;;0.40;0.40;;;5.90;99.90;;;;;;5054629;28;20253;-71
2021/03/04 06:25:13;;;;;;;0.30;0.30;;;5.90;99.90;;;;;;5069479;28;20241;-71
2021/03/04 06:27:41;;;;;;;0.40;0.40;;;5.90;99.90;;;;;;5054529;28;20243;-71
2021/03/04 06:30:12;;;;;;;0.85;0.85;;;5.90;99.90;;;;;;5055988;28;20250;-70
2021/03/04 06:32:53;;;;;;;1.00;0.98;;;5.90;99.90;;;;;;5061982;28;20177;-70
2021/03/04 06:35:19;;;;;;;0.38;0.38;;;5.90;99.90;;;;;;5058460;28;20276;-70
2021/03/04 06:37:52;;;;;;;0.93;0.93;;;5.90;99.90;;;;;;5073914;28;20635;-70
2021/03/04 06:40:21;;;;;;;0.30;0.30;;;6.00;99.90;;;;;;5073344;28;20466;-70
2021/03/04 06:42:47;;;;;;;0.40;0.40;;;6.00;99.90;;;;;;5074173;28;20165;-71
2021/03/04 06:45:26;;;;;;;0.38;0.38;;;6.00;99.90;;;;;;5070514;28;20193;-72
2021/03/04 06:48:04;;;;;;;0.32;0.32;;;6.00;99.90;;;;;;5057332;28;20181;-72
2021/03/04 06:50:30;;;;;;;0.30;0.30;;;6.00;99.90;;;;;;5058220;28;20240;-71
2021/03/04 06:52:55;;;;;;;0.40;0.40;;;6.00;99.90;;;;;;5073808;28;20249;-74
2021/03/04 06:55:21;;;;;;;0.40;0.40;;;6.10;99.90;;;;;;5067404;28;20981;-71
2021/03/04 06:58:03;;;;;;;1.33;1.27;;;6.10;99.90;;;;;;5057824;28;20300;-72
2021/03/04 07:00:29;;;;;;;1.27;1.27;;;6.30;99.90;;;;;;5057370;28;20540;-72
2021/03/04 07:02:57;;;;;;;0.60;0.60;;;6.30;99.90;;;;;;5074111;28;20173;-73
2021/03/04 07:05:26;;;;;;;1.10;1.10;;;6.40;99.90;;;;;;5069973;28;20569;-73
2021/03/04 07:07:54;;;;;;;0.30;0.30;;;6.50;99.90;;;;;;5070992;28;20544;-72
2021/03/04 07:10:23;;;;;;;0.60;0.60;;;6.50;99.90;;;;;;5060702;28;20243;-72
2021/03/04 07:12:49;;;;;;;0.40;0.40;;;6.50;99.90;;;;;;5053694;28;20165;-72
2021/03/04 07:15:16;;;;;;;0.30;0.30;;;6.50;99.90;;;;;;5063190;28;20218;-72
2021/03/04 07:17:50;;;;;;;0.30;0.30;;;6.60;99.90;;;;;;5053722;28;20179;-72
2021/03/04 07:20:20;;;;;;;1.35;1.33;;;6.70;99.90;;;;;;5053886;28;20540;-72
2021/03/04 07:22:47;;;;;;;0.60;0.60;;;6.80;99.90;;;;;;5071978;28;20183;-70
2021/03/04 07:25:15;;;;;;;2.55;2.45;;;7.00;99.90;;;;;;5063272;28;20218;-70
2021/03/04 07:27:42;;;;;;;0.35;0.35;;;7.20;99.90;;;;;;5057985;28;20227;-70
2021/03/04 07:30:12;;;;;;;1.17;1.15;;;7.30;99.90;;;;;;5054260;28;20718;-70
2021/03/04 07:32:38;;;;;;;1.70;1.23;;;7.50;99.90;;;;;;5053358;28;20196;-71
2021/03/04 07:35:11;;;;;;;3.33;0.77;;;7.60;99.90;;;;;;5053911;28;20546;-71
2021/03/04 07:37:41;;;;;;;0.30;0.30;;;7.80;99.90;;;;;;5053121;28;20163;-71
2021/03/04 07:40:09;;;;;;;0.40;0.40;;;8.20;99.90;;;;;;5066727;28;20579;-73
2021/03/04 07:42:35;;;;;;;0.32;0.32;;;8.40;99.90;;;;;;5054637;28;20509;-72
2021/03/04 07:45:11;;;;;;;2.30;2.20;;;8.70;99.90;;;;;;5058290;28;20199;-70
2021/03/04 07:47:37;;;;;;;0.50;0.50;;;9.10;99.90;;;;;;5073302;28;20175;-72
2021/03/04 07:50:14;;;;;;;0.47;0.47;;;9.40;99.90;;;;;;5064701;28;20185;-72
2021/03/04 07:52:41;;;;;;;0.77;0.77;;;9.80;99.90;;;;;;5067522;28;20184;-69
2021/03/04 07:55:13;;;;;;;0.40;0.40;;;10.30;99.90;;;;;;5063804;28;20201;-67
2021/03/04 07:57:46;;;;;;;0.70;0.70;;;11.00;99.90;;;;;;5053089;28;20178;-70
2021/03/04 08:00:16;;;;;;;0.50;0.50;;;11.90;99.90;;;;;;5052809;28;20878;-73
2021/03/04 08:02:43;;;;;;;0.83;0.83;;;12.70;99.70;;;;;;5053190;28;20472;-73
2021/03/04 08:05:16;;;;;;;1.63;1.63;;;13.30;98.60;;;;;;5060515;28;20445;-70
2021/03/04 08:07:45;;;;;;;0.70;0.70;;;13.80;98.20;;;;;;5072889;28;20444;-72
2021/03/04 08:10:13;;;;;;;0.43;0.43;;;14.50;96.40;;;;;;5064397;28;20471;-71
2021/03/04 08:13:00;;;;;;;0.73;0.73;;;14.90;95.50;;;;;;5052705;28;20468;-71
2021/03/04 08:15:44;;;;;;;0.70;0.70;;;15.60;93.20;;;;;;5055909;28;20537;-71
2021/03/04 08:18:22;;;;;;;0.33;0.33;;;15.80;91.90;;;;;;5052800;28;20422;-72
2021/03/04 08:20:49;;;;;;;0.53;0.53;;;15.50;91.00;;;;;;5064715;28;20420;-71
2021/03/04 08:23:17;;;;;;;0.47;0.47;;;15.10;91.70;;;;;;5072605;28;20418;-70
2021/03/04 08:25:43;;;;;;;0.50;0.50;;;14.80;92.10;;;;;;5060616;28;20444;-71
2021/03/04 08:28:09;;;;;;;0.87;0.87;;;14.90;92.40;;;;;;5052860;28;20432;-68
2021/03/04 08:30:42;;;;;;;1.23;1.23;;;15.40;92.00;;;;;;5060299;28;20453;-69
2021/03/04 08:33:12;;;;;;;0.63;0.63;;;16.00;91.10;;;;;;5053579;28;20431;-67
2021/03/04 08:35:45;;;;;;;1.50;1.23;;;16.60;88.70;;;;;;5061999;28;20459;-68
2021/03/04 08:38:20;;;;;;;0.30;0.30;;;17.30;87.30;;;;;;5072867;28;20494;-67
2021/03/04 08:40:51;;;;;;;1.63;1.53;;;18.00;83.20;;;;;;5061892;28;20805;-70
2021/03/04 08:43:24;;;;;;;0.60;0.60;;;18.50;80.40;;;;;;5052863;28;20407;-74
2021/03/04 08:46:02;;;;;;;1.03;1.03;;;18.60;80.40;;;;;;5053069;28;20936;-75
2021/03/04 08:48:28;;;;;;;1.40;1.30;;;18.70;80.20;;;;;;5052591;28;20419;-75
2021/03/04 08:50:58;;;;;;;2.20;0.87;;;18.90;80.20;;;;;;5066971;28;20511;-74
2021/03/04 08:53:32;;;;;;;1.07;1.07;;;19.40;78.40;;;;;;5058997;28;20423;-74
2021/03/04 08:56:00;;;;;;;0.90;0.90;;;19.90;77.10;;;;;;5064122;28;20955;-73
2021/03/04 08:58:28;;;;;;;0.90;0.90;;;20.70;73.70;;;;;;5056311;28;20378;-75
2021/03/04 09:00:59;;;;;;;4.40;2.10;;;21.30;73.10;;;;;;5065901;28;20415;-74
2021/03/04 09:03:30;;;;;;;0.80;0.80;;;21.50;70.80;;;;;;5076153;28;20433;-75
2021/03/04 09:06:16;;;;;;;1.20;1.00;;;21.70;70.10;;;;;;5063388;28;20943;-75
2021/03/04 09:08:47;;;;;;;0.67;0.63;;;22.30;66.40;;;;;;5060025;28;20385;-74
2021/03/04 09:11:32;;;;;;;1.57;1.50;;;22.90;64.20;;;;;;5076225;28;20468;-67
2021/03/04 09:14:06;;;;;;;1.27;1.17;;;23.30;61.40;;;;;;5069995;28;20427;-72
2021/03/04 09:16:38;;;;;;;1.57;1.47;;;23.80;58.70;;;;;;5055940;28;20451;-68
2021/03/04 09:19:04;;;;;;;0.97;0.97;;;24.20;56.50;;;;;;5059081;28;20766;-67
2021/03/04 09:21:30;;;;;;;0.77;0.77;;;24.20;55.90;;;;;;5072894;28;20432;-66
2021/03/04 09:23:57;;;;;;;3.13;1.20;;;24.10;55.10;;;;;;5060971;28;20183;-68
2021/03/04 09:26:34;;;;;;;5.67;1.80;;;24.00;55.40;;;;;;5075811;28;20463;-68
2021/03/04 09:29:05;;;;;;;4.40;1.87;;;24.20;55.20;;;;;;5070676;28;20416;-67
2021/03/04 09:31:31;;;;;;;3.17;1.23;;;23.90;55.30;;;;;;5055709;28;20463;-67
2021/03/04 09:33:58;;;;;;;4.97;2.53;;;23.80;52.90;;;;;;5058589;28;20424;-67
2021/03/04 09:36:24;;;;;;;3.00;1.50;;;23.80;52.20;;;;;;5076044;28;20276;-68
2021/03/04 09:38:55;;;;;;;3.03;1.33;;;24.00;51.40;;;;;;5073143;28;20378;-67
2021/03/04 09:41:23;;;;;;;2.63;0.87;;;24.20;50.30;;;;;;5054422;28;20755;-68
2021/03/04 09:43:55;;;;;;;2.53;1.03;;;24.50;51.50;;;;;;5056224;28;20387;-68
2021/03/04 09:46:41;;;;;;;4.73;1.30;;;24.90;50.50;;;;;;5064714;28;20418;-66
2021/03/04 09:49:11;;;;;;;3.73;1.53;;;24.90;48.60;;;;;;5072099;28;20401;-65
2021/03/04 09:51:40;;;;;;;2.90;1.27;;;24.20;49.10;;;;;;5074605;28;20398;-66
2021/03/04 09:54:07;;;;;;;3.87;2.70;;;23.00;49.40;;;;;;5072454;28;20505;-66
2021/03/04 09:56:32;;;;;;;2.50;1.17;;;22.50;51.30;;;;;;5055055;28;20807;-64
2021/03/04 09:58:59;;;;;;;5.07;1.37;;;22.50;51.70;;;;;;5055649;28;20397;-66
2021/03/04 10:01:36;;;;;;;3.50;1.10;;;22.90;51.20;;;;;;5074383;28;20304;-67
2021/03/04 10:04:07;;;;;;;2.80;0.77;;;23.30;50.80;;;;;;5053536;28;20411;-66
2021/03/04 10:06:38;;;;;;;2.60;1.23;;;23.30;50.30;;;;;;5055696;28;20444;-70
2021/03/04 10:09:07;;;;;;;4.40;1.77;;;23.50;50.50;;;;;;5055655;28;20413;-68
2021/03/04 10:11:37;;;;;;;3.03;1.27;;;23.80;49.60;;;;;;5075026;28;20821;-68
2021/03/04 10:14:11;;;;;;;2.87;1.33;;;24.10;50.30;;;;;;5070573;28;20520;-68
2021/03/04 10:16:37;;;;;;;2.93;1.23;;;24.50;50.40;;;;;;5055069;28;20436;-65
2021/03/04 10:19:05;;;;;;;3.03;0.90;;;24.70;50.50;;;;;;5058778;28;20488;-66
2021/03/04 10:21:31;;;;;;;2.70;0.97;;;24.90;50.60;;;;;;5074938;28;20545;-66
2021/03/04 10:23:57;;;;;;;2.90;1.30;;;25.10;49.80;;;;;;5071084;28;20986;-67
2021/03/04 10:26:22;;;;;;;2.10;0.80;;;25.10;50.90;;;;;;5057547;28;20281;-66
2021/03/04 10:28:48;;;;;;;2.47;1.30;;;24.90;51.30;;;;;;5071976;28;20172;-66
2021/03/04 10:31:14;;;;;;;3.97;1.90;;;24.90;50.00;;;;;;5053250;28;20216;-65
2021/03/04 10:33:40;;;;;;;2.77;1.77;;;25.10;49.50;;;;;;5054661;28;20178;-65
2021/03/04 10:36:06;;;;;;;3.57;1.60;;;25.40;49.00;;;;;;5054399;28;20208;-65
2021/03/04 10:38:32;;;;;;;2.60;1.37;;;25.40;48.90;;;;;;5054719;28;20391;-67
2021/03/04 10:40:58;;;;;;;3.30;1.13;;;24.80;49.90;;;;;;5065589;28;20501;-66
2021/03/04 10:43:24;;;;;;;3.33;1.20;;;24.70;51.20;;;;;;5054600;28;20641;-65
2021/03/04 10:45:50;;;;;;;3.20;2.00;;;24.30;51.80;;;;;;5071060;28;20442;-66
2021/03/04 10:48:16;;;;;;;2.40;0.70;;;24.10;52.20;;;;;;5074143;28;20612;-64
2021/03/04 10:50:41;;;;;;;2.30;0.83;;;23.90;52.60;;;;;;5058104;28;20184;-64
2021/03/04 10:53:07;;;;;;;2.77;0.70;;;23.80;52.80;;;;;;5057163;28;20210;-66
2021/03/04 10:55:33;;;;;;;5.87;1.57;;;23.60;53.00;;;;;;5071716;28;20299;-66
2021/03/04 10:57:58;;;;;;;4.33;0.93;;;23.70;53.20;;;;;;5073955;28;20258;-66
2021/03/04 11:00:26;;;;;;;2.40;0.80;;;23.60;53.40;;;;;;5058924;28;20279;-68
2021/03/04 11:02:52;;;;;;;2.50;1.03;;;23.80;53.40;;;;;;5054087;28;20632;-66
2021/03/04 11:05:18;;;;;;;2.50;0.90;;;24.00;53.00;;;;;;5067951;28;20474;-66
2021/03/04 11:07:45;;;;;;;2.30;0.60;;;24.10;52.60;;;;;;5073700;28;20687;-65
2021/03/04 11:10:11;;;;;;;2.30;0.80;;;23.90;52.70;;;;;;5073402;28;20188;-67
2021/03/04 11:12:37;;;;;;;2.97;0.93;;;23.70;53.10;;;;;;5072594;28;20390;-67
2021/03/04 11:15:07;;;;;;;2.70;0.80;;;23.60;53.00;;;;;;5073156;28;20773;-68
2021/03/04 11:17:33;;;;;;;4.63;1.73;;;23.50;53.50;;;;;;5073430;28;20687;-65
2021/03/04 11:19:59;;;;;;;3.40;1.50;;;23.60;53.00;;;;;;5053471;28;20537;-65
2021/03/04 11:22:24;;;;;;;2.80;0.90;;;23.50;53.50;;;;;;5060328;28;20209;-66
2021/03/04 11:24:50;;;;;;;2.73;1.03;;;23.20;53.90;;;;;;5053085;28;20436;-66
2021/03/04 11:27:16;;;;;;;2.73;0.83;;;22.90;54.70;;;;;;5053809;28;20593;-67
2021/03/04 11:29:45;;;;;;;2.60;0.97;;;22.40;55.40;;;;;;5067677;28;20250;-66
2021/03/04 11:32:11;;;;;;;2.30;0.50;;;21.50;56.70;;;;;;5063828;28;20810;-68
2021/03/04 11:34:37;;;;;;;2.93;1.63;;;20.80;57.50;;;;;;5072365;28;20418;-68
2021/03/04 11:37:02;;;;;;;2.80;0.60;;;20.30;57.60;;;;;;5073071;28;20708;-66
2021/03/04 11:39:28;;;;;;;2.93;2.30;;;19.80;58.00;;;;;;5072728;28;20200;-66
2021/03/04 11:41:54;;;;;;;2.50;1.03;;;19.60;58.70;;;;;;5073531;28;20575;-67
2021/03/04 11:44:20;;;;;;;2.50;0.80;;;19.30;59.40;;;;;;5058996;28;20174;-66
2021/03/04 11:46:45;;;;;;;2.23;0.50;;;19.10;60.30;;;;;;5053002;28;20247;-66
2021/03/04 11:49:11;;;;;;;3.03;1.17;;;18.90;60.40;;;;;;5069136;28;20218;-67
2021/03/04 11:51:37;;;;;;;2.47;0.73;;;18.80;62.10;;;;;;5073277;28;20431;-69
2021/03/04 11:54:02;;;;;;;4.53;1.20;;;18.70;61.70;;;;;;5061279;28;20197;-71
2021/03/04 11:56:29;;;;;;;5.53;1.60;;;18.50;61.90;;;;;;5053134;28;20708;-71
2021/03/04 11:58:55;;;;;;;2.50;0.50;;;18.50;61.60;;;;;;5061398;28;20169;-70
2021/03/04 12:01:21;;;;;;;3.43;0.80;;;18.50;61.90;;;;;;5073068;28;20573;-70
2021/03/04 12:03:47;;;;;;;2.60;0.60;;;18.40;62.20;;;;;;5065296;28;20652;-70
2021/03/04 12:06:14;;;;;;;3.00;1.03;;;18.40;62.00;;;;;;5072982;28;20181;-72
2021/03/04 12:08:40;;;;;;;2.60;0.73;;;18.30;60.30;;;;;;5069434;28;20418;-70
2021/03/04 12:11:14;;;;;;;2.90;0.50;;;18.10;59.80;;;;;;5072788;28;20760;-71
2021/03/04 12:13:40;;;;;;;2.40;0.33;;;18.10;60.90;;;;;;5062994;28;20187;-69
2021/03/04 12:16:06;;;;;;;2.37;0.33;;;18.00;59.70;;;;;;5052659;28;20420;-68
2021/03/04 12:18:33;;;;;;;2.40;0.60;;;17.90;58.60;;;;;;5059662;28;20176;-69
2021/03/04 12:20:59;;;;;;;3.13;0.90;;;18.00;58.30;;;;;;5072946;28;20464;-69
2021/03/04 12:23:25;;;;;;;3.73;1.10;;;17.90;58.10;;;;;;5066845;28;20491;-68
2021/03/04 12:25:51;;;;;;;2.40;0.40;;;17.70;58.00;;;;;;5056166;28;20788;-68
2021/03/04 12:28:17;;;;;;;3.27;0.70;;;17.70;58.50;;;;;;5076858;28;20394;-68
2021/03/04 12:30:42;;;;;;;3.17;0.80;;;17.60;57.80;;;;;;5076795;28;20192;-68
2021/03/04 12:33:08;;;;;;;2.40;0.43;;;17.60;57.90;;;;;;5057344;28;20751;-66
2021/03/04 12:35:34;;;;;;;2.60;0.80;;;17.60;56.60;;;;;;5056345;28;20668;-67
2021/03/04 12:37:59;;;;;;;2.40;0.40;;;17.50;56.70;;;;;;5056710;28;20184;-68
2021/03/04 12:40:27;;;;;;;2.50;0.60;;;17.40;56.90;;;;;;5056507;28;20197;-68
2021/03/04 12:42:53;;;;;;;2.97;1.23;;;17.30;57.10;;;;;;5071084;28;20181;-68
2021/03/04 12:45:19;;;;;;;2.40;0.30;;;17.30;57.10;;;;;;5076119;28;20463;-68
2021/03/04 12:47:45;;;;;;;2.40;0.30;;;17.20;57.00;;;;;;5075854;28;20638;-68
2021/03/04 12:50:11;;;;;;;3.20;0.70;;;17.10;56.60;;;;;;5073045;28;20643;-69
2021/03/04 12:52:36;;;;;;;2.37;0.27;;;16.90;56.20;;;;;;5056150;28;20247;-68
2021/03/04 12:55:02;;;;;;;3.00;1.03;;;16.80;56.50;;;;;;5056251;28;20463;-70
2021/03/04 12:57:28;;;;;;;2.37;0.30;;;16.80;56.50;;;;;;5070256;28;20192;-69